Adin, California
Current Conditions -  °F | °C
As of 8:05 AM on Saturday 22 Nov 2014 (Local Time) from KAAT Reporting Station
Overcast Overcast  
Wind Chill: 36°   Ceiling: 1700
Heat Index: 43°   Visibility: 10mi
Dew Point: 40°   Wind: 14mph
Humidity: 89%   Direction: 260°W
Pressure: 29.89"   Gusts: NA
Location:  41.19°N, 120.95°W
Report Text: KAAT 221605Z AUTO 26012KT 10SM FEW006 SCT010 OVC017 06/04 A2989 RMK AO2 T00610044
Loading
Personal Weather Stations






























Interactive Weather Map New forecast layout! Learn more

10-Day Weather Forecast

Advertisements
Track Severe Weather on mobile